Oslo Venture — VRNT9 — position and weather

sailwx.info

Track history (hours):
 
Tides and Currents Weather Stations Pressure Air Temp Water Temp Dewpoint Dewpoint Depression Visibility Wind Speed Wind Dir Waves Ship Positions

Oslo Venture

Last reported at 2017-Dec-11 16:10 UTC. Time now 2017-Dec-16 03:25 UTC.
Position S 00°03' W 047°40'.

Length 200 m; draft 12.5 m.

Type: Cargo ship. MMSI: 477476200.

Date/timePositionNaut miles runAvg speedWind from/ knotsBaromVisibWave heightAir tempDewpointWater temp
2017-Dec-11 16:10S 00°03' W 047°40'3 8.9
2017-Dec-11 15:52S 00°05' W 047°42'4 9.3
2017-Dec-11 15:29S 00°07' W 047°45'4 9.4
2017-Dec-11 15:00S 00°10' W 047°49'5 9.4
2017-Dec-11 14:30S 00°12' W 047°53'4 7.6
2017-Dec-11 14:00S 00°16' W 047°55'3 5.4
2017-Dec-11 13:30S 00°17' W 047°57'611.6
2017-Dec-11 13:00S 00°19' W 048°02'511.0
2017-Dec-11 12:30S 00°22' W 048°07'510.6
2017-Dec-11 12:00S 00°25' W 048°12'510.7
2017-Dec-11 11:30S 00°29' W 048°15'612.2
2017-Dec-11 11:00S 00°33' W 048°19'612.3
2017-Dec-11 10:30S 00°39' W 048°22'711.9
2017-Dec-11 09:56S 00°44' W 048°26'910.4
2017-Dec-11 09:05S 00°53' W 048°29'110.7
2017-Dec-11 09:00S 00°53' W 048°29'5 9.2
2017-Dec-11 08:30S 00°58' W 048°27'5 9.3
2017-Dec-11 08:00S 01°02' W 048°28'5 9.2
2017-Dec-11 07:30S 01°06' W 048°30'4 8.8
2017-Dec-11 07:00S 01°09' W 048°33'2 3.1
2017-Dec-11 06:30S 01°10' W 048°34'4 9.0
2017-Dec-11 06:00S 01°13' W 048°38'510.1
2017-Dec-11 05:30S 01°17' W 048°40'510.8
2017-Dec-11 05:00S 01°22' W 048°42'611.3
2017-Dec-11 04:30S 01°28' W 048°44'3 5.5
2017-Dec-11 04:00S 01°30' W 048°44'0 0.0
2017-Dec-11 03:29S 01°30' W 048°44'0 0.0
2017-Dec-11 02:59S 01°30' W 048°44'0 0.0
2017-Dec-11 02:29S 01°30' W 048°44'0 0.0
2017-Dec-11 01:56S 01°30' W 048°44'0 0.0
2017-Dec-11 01:29S 01°30' W 048°44'0 0.0
2017-Dec-11 00:59S 01°30' W 048°44'0 0.0
2017-Dec-11 00:29S 01°30' W 048°44'0 0.0
2017-Dec-10 23:59S 01°30' W 048°44'0 0.0
2017-Dec-10 23:29S 01°30' W 048°44'0 0.0
2017-Dec-10 22:59S 01°30' W 048°44'0 0.0
2017-Dec-10 22:29S 01°30' W 048°44'0 0.0
2017-Dec-10 21:59S 01°30' W 048°44'0 0.0
2017-Dec-10 21:29S 01°30' W 048°44'0 0.0
2017-Dec-10 20:59S 01°30' W 048°44'0 0.0
2017-Dec-10 20:29S 01°30' W 048°44'0 0.0
2017-Dec-10 19:59S 01°30' W 048°44'0 0.0
2017-Dec-10 19:29S 01°30' W 048°44'0 0.0
2017-Dec-10 18:59S 01°30' W 048°44'0 0.0
2017-Dec-10 18:29S 01°30' W 048°44'0 0.0
2017-Dec-10 17:59S 01°30' W 048°44'0 0.0
2017-Dec-10 17:29S 01°30' W 048°44'0 0.0
2017-Dec-10 16:59S 01°30' W 048°44'0 0.0
2017-Dec-10 16:29S 01°30' W 048°44'0 0.0
2017-Dec-10 15:59S 01°30' W 048°44'0 0.0
2017-Dec-10 15:29S 01°30' W 048°44'0 0.0
2017-Dec-10 14:59S 01°30' W 048°44'0 0.0
2017-Dec-10 14:20S 01°30' W 048°44'0 0.0
2017-Dec-10 13:59S 01°30' W 048°44'0 0.0
2017-Dec-10 13:29S 01°30' W 048°44'0 0.0
2017-Dec-10 12:59S 01°30' W 048°44'0 0.0
2017-Dec-10 12:29S 01°30' W 048°44'0 0.0
2017-Dec-10 11:59S 01°30' W 048°44'0 0.0
2017-Dec-10 11:29S 01°30' W 048°44'0 0.0
2017-Dec-10 10:59S 01°30' W 048°44'0 0.0
2017-Dec-10 10:29S 01°30' W 048°44'0 0.0
2017-Dec-10 09:59S 01°30' W 048°44'0 0.0
2017-Dec-10 09:29S 01°30' W 048°44'0 0.0
2017-Dec-10 08:53S 01°30' W 048°44'0 0.0
2017-Dec-10 08:29S 01°30' W 048°44'0 0.0
2017-Dec-10 07:56S 01°30' W 048°44'0 0.0
2017-Dec-10 07:29S 01°30' W 048°44'0 0.0
2017-Dec-10 06:59S 01°30' W 048°44'0 0.0
2017-Dec-10 06:29S 01°30' W 048°44'0 0.0
2017-Dec-10 05:53S 01°30' W 048°44'0 0.0
2017-Dec-10 05:17S 01°30' W 048°44'0 0.0
2017-Dec-10 04:56S 01°30' W 048°44'0 0.0
2017-Dec-10 04:29S 01°30' W 048°44'0 0.0
2017-Dec-10 03:59S 01°30' W 048°44'0 0.0
2017-Dec-10 03:29S 01°30' W 048°44'0 0.0
2017-Dec-10 02:59S 01°30' W 048°44'0 0.0
2017-Dec-10 02:29S 01°30' W 048°44'0 0.0
2017-Dec-10 01:59S 01°30' W 048°44'0 0.0
2017-Dec-10 01:29S 01°30' W 048°44'0 0.0
2017-Dec-10 00:59S 01°30' W 048°44'0 0.0
2017-Dec-10 00:29S 01°30' W 048°44'0 0.0
2017-Dec-09 23:59S 01°30' W 048°44'0 0.0
2017-Dec-09 23:29S 01°30' W 048°44'0 0.0
2017-Dec-09 22:59S 01°30' W 048°44'0 0.0
2017-Dec-09 22:29S 01°30' W 048°44'0 0.0
2017-Dec-09 21:59S 01°30' W 048°44'0 0.0
2017-Dec-08 18:17S 01°30' W 048°44'0 0.0
2017-Dec-08 17:59S 01°30' W 048°44'0 0.0
2017-Dec-08 17:29S 01°30' W 048°44'0 0.0
2017-Dec-08 16:50S 01°30' W 048°44'0 0.0
2017-Dec-08 16:29S 01°30' W 048°44'0 0.0
2017-Dec-08 15:59S 01°30' W 048°44'0 0.0
2017-Dec-08 15:29S 01°30' W 048°44'0 0.0
2017-Dec-08 14:59S 01°30' W 048°44'0 0.0
2017-Dec-08 14:29S 01°30' W 048°44'0 0.0
2017-Dec-08 13:50S 01°30' W 048°44'0 0.0
2017-Dec-08 13:29S 01°30' W 048°44'0 0.0
2017-Dec-08 12:59S 01°30' W 048°44'0 0.0
2017-Dec-08 12:29S 01°30' W 048°44'0 0.0
2017-Dec-08 11:59S 01°30' W 048°44'0 0.0
2017-Dec-08 11:29S 01°30' W 048°44'0 0.0
2017-Dec-08 10:59S 01°30' W 048°44'0 0.0
2017-Dec-08 10:29S 01°30' W 048°44'0 0.0
2017-Dec-08 09:56S 01°30' W 048°44'0 0.0
2017-Dec-08 09:29S 01°30' W 048°44'0 0.0
2017-Dec-08 08:56S 01°30' W 048°44'0 0.0
2017-Dec-08 08:29S 01°30' W 048°44'0 0.0
2017-Dec-08 07:59S 01°30' W 048°44'0 0.0
2017-Dec-08 07:29S 01°30' W 048°44'0 0.0
2017-Dec-08 06:59S 01°30' W 048°44'0 0.0
2017-Dec-08 06:29S 01°30' W 048°44'0 0.0
2017-Dec-08 05:59S 01°30' W 048°44'0 0.0
2017-Dec-08 05:29S 01°30' W 048°44'0 0.0
2017-Dec-08 04:59S 01°30' W 048°44'0 0.0
2017-Dec-08 04:29S 01°30' W 048°44'0 0.0
2017-Dec-08 03:59S 01°30' W 048°44'0 0.0
2017-Dec-08 03:30S 01°30' W 048°44'1 1.2
2017-Dec-08 02:58S 01°30' W 048°45'4 9.1
2017-Dec-08 02:30S 01°27' W 048°43'612.3
2017-Dec-08 02:01S 01°21' W 048°40'510.9
2017-Dec-08 01:31S 01°17' W 048°37'510.9
2017-Dec-08 01:01S 01°12' W 048°34'5 9.5
2017-Dec-08 00:31S 01°08' W 048°31'2 3.9
2017-Dec-08 00:01S 01°07' W 048°30'1 2.0
2017-Dec-07 23:31S 01°06' W 048°29'0 0.1
2017-Dec-07 23:00S 01°06' W 048°29'0 0.1
2017-Dec-07 22:30S 01°06' W 048°29'0 0.0
2017-Dec-07 21:54S 01°06' W 048°29'0 0.0
2017-Dec-07 21:27S 01°06' W 048°29'0 0.0
2017-Dec-07 20:57S 01°06' W 048°29'0 0.2
2017-Dec-07 20:27S 01°06' W 048°29'0 0.4
2017-Dec-07 19:57S 01°07' W 048°29'0 0.1
2017-Dec-07 19:21S 01°07' W 048°29'0 0.1
2017-Dec-07 18:57S 01°07' W 048°29'0 0.0
2017-Dec-07 18:27S 01°07' W 048°29'0 0.0
2017-Dec-07 17:57S 01°07' W 048°29'0 0.0
2017-Dec-07 17:27S 01°07' W 048°29'0 0.0
2017-Dec-07 17:00S 01°07' W 048°29'0 0.0
2017-Dec-07 16:27S 01°07' W 048°29'0 0.0
2017-Dec-07 15:57S 01°07' W 048°29'0 0.0
2017-Dec-07 15:09S 01°07' W 048°29'0 0.0
2017-Dec-07 14:57S 01°07' W 048°29'0 0.1
2017-Dec-07 14:27S 01°07' W 048°29'0 0.0
2017-Dec-07 13:51S 01°07' W 048°29'0 0.1
2017-Dec-07 13:30S 01°07' W 048°29'0 0.5
2017-Dec-07 13:00S 01°06' W 048°29'0 0.1
2017-Dec-07 12:30S 01°06' W 048°29'0 0.0
2017-Dec-07 12:00S 01°06' W 048°29'0 0.0
2017-Dec-07 11:30S 01°06' W 048°29'0 0.0
2017-Dec-07 11:00S 01°06' W 048°29'0 0.0
2017-Dec-07 10:27S 01°06' W 048°29'0 0.0
2017-Dec-07 10:00S 01°06' W 048°29'0 0.0
2017-Dec-07 09:30S 01°06' W 048°29'0 0.0
2017-Dec-07 09:00S 01°06' W 048°29'0 0.0
2017-Dec-07 08:30S 01°06' W 048°29'0 0.0
2017-Dec-07 08:00S 01°06' W 048°29'0 0.1
2017-Dec-07 07:30S 01°06' W 048°29'0 0.3
2017-Dec-07 07:00S 01°06' W 048°29'0 0.2
2017-Dec-07 06:30S 01°06' W 048°29'0 0.1
2017-Dec-07 05:57S 01°07' W 048°29'0 0.0
2017-Dec-07 05:27S 01°07' W 048°29'0 0.0
2017-Dec-07 04:57S 01°07' W 048°29'0 0.0
2017-Dec-07 04:15S 01°07' W 048°29'0 0.0
2017-Dec-07 03:57S 01°07' W 048°29'0 0.0
2017-Dec-07 03:27S 01°07' W 048°29'0 0.0
2017-Dec-07 02:57S 01°07' W 048°29'0 0.0
2017-Dec-07 02:21S 01°07' W 048°29'0 0.0
2017-Dec-07 01:59S 01°07' W 048°29'0 0.1
2017-Dec-07 01:27S 01°07' W 048°29'0 0.0
2017-Dec-07 00:57S 01°07' W 048°29'0 0.2
2017-Dec-07 00:30S 01°07' W 048°29'0 0.3
2017-Dec-07 00:00S 01°06' W 048°29'0 0.1
2017-Dec-06 23:30S 01°06' W 048°29'0 0.0
2017-Dec-06 22:57S 01°06' W 048°29'0 0.0
2017-Dec-06 22:27S 01°06' W 048°29'0 0.0
2017-Dec-06 22:00S 01°06' W 048°29'0 0.2
2017-Dec-06 21:30S 01°06' W 048°29'0 0.1
2017-Dec-06 20:57S 01°06' W 048°29'  
2017-Dec-04 10:21S 01°06' W 048°29'0 0.1
2017-Dec-04 10:00S 01°06' W 048°29'0 0.1
2017-Dec-04 09:30S 01°06' W 048°29'0 0.1
2017-Dec-04 08:57S 01°06' W 048°29'0 0.0
2017-Dec-04 08:30S 01°06' W 048°29'0 0.0
2017-Dec-04 08:00S 01°06' W 048°29'0 0.0
2017-Dec-04 07:30S 01°06' W 048°29'0 0.0
2017-Dec-04 07:00S 01°06' W 048°29'0 0.1
2017-Dec-04 06:30S 01°06' W 048°29'0 0.0
2017-Dec-04 05:54S 01°06' W 048°29'0 0.0
2017-Dec-04 05:30S 01°06' W 048°29'0 0.1
2017-Dec-04 04:57S 01°06' W 048°29'0 0.4
2017-Dec-04 04:27S 01°06' W 048°29'0 0.2
2017-Dec-04 03:57S 01°06' W 048°29'0 0.0
2017-Dec-04 03:27S 01°07' W 048°29'0 0.0
2017-Dec-04 02:57S 01°07' W 048°29'0 0.0
2017-Dec-04 02:24S 01°07' W 048°29'0 0.0
2017-Dec-04 01:57S 01°07' W 048°29'0 0.0
2017-Dec-04 01:27S 01°07' W 048°29'0 0.0
2017-Dec-04 00:57S 01°07' W 048°29'0 0.0
2017-Dec-04 00:27S 01°07' W 048°29'0 0.0
2017-Dec-03 23:57S 01°07' W 048°29'0 0.0
2017-Dec-03 23:15S 01°07' W 048°29'0 0.0
2017-Dec-03 22:57S 01°07' W 048°29'0 0.0
2017-Dec-03 22:27S 01°07' W 048°29'0 0.0
2017-Dec-03 21:57S 01°07' W 048°29'0 0.4
2017-Dec-03 21:30S 01°06' W 048°29'0 0.1
2017-Dec-03 21:00S 01°06' W 048°29'0 0.1
2017-Dec-03 20:30S 01°06' W 048°29'0 0.0
2017-Dec-03 20:00S 01°06' W 048°29'0 0.0
2017-Dec-03 19:30S 01°06' W 048°29'0 0.0
2017-Dec-03 19:00S 01°06' W 048°29'0 0.1
2017-Dec-03 18:24S 01°06' W 048°29'0 0.1
2017-Dec-03 17:57S 01°06' W 048°29'0 0.0
2017-Dec-03 17:30S 01°06' W 048°29'0 0.0
2017-Dec-03 17:00S 01°06' W 048°29'0 0.1
2017-Dec-03 16:30S 01°06' W 048°29'0 0.3
2017-Dec-03 15:57S 01°06' W 048°29'0 0.1
2017-Dec-03 15:30S 01°06' W 048°29'0 0.1
2017-Dec-03 15:00S 01°07' W 048°29'0 0.0
2017-Dec-03 14:21S 01°07' W 048°29'0 0.1
2017-Dec-03 14:00S 01°07' W 048°29'0 0.0
2017-Dec-03 13:30S 01°07' W 048°29'0 0.0
2017-Dec-03 12:57S 01°07' W 048°29'0 0.0
2017-Dec-03 12:27S 01°07' W 048°29'0 0.0
2017-Dec-03 11:57S 01°07' W 048°29'0 0.0
2017-Dec-03 11:27S 01°07' W 048°29'0 0.1
2017-Dec-03 10:57S 01°07' W 048°29'0 0.0
2017-Dec-03 10:27S 01°07' W 048°29'0 0.3
2017-Dec-03 10:00S 01°06' W 048°29'0 0.3
2017-Dec-03 09:30S 01°06' W 048°29'0 0.1
2017-Dec-03 08:57S 01°06' W 048°29'0 0.0
2017-Dec-03 08:27S 01°06' W 048°29'0 0.0
2017-Dec-03 08:00S 01°06' W 048°29'0 0.0
2017-Dec-03 07:30S 01°06' W 048°29'0 0.0
2017-Dec-03 06:57S 01°06' W 048°29'0 0.0
2017-Dec-03 06:27S 01°06' W 048°29'0 0.1
2017-Dec-03 06:00S 01°06' W 048°29'0 0.0
2017-Dec-03 05:30S 01°06' W 048°29'0 0.0
2017-Dec-03 05:00S 01°06' W 048°29'0 0.0
2017-Dec-03 04:24S 01°06' W 048°29'0 0.2
2017-Dec-03 04:00S 01°06' W 048°29'0 0.2
2017-Dec-03 03:27S 01°06' W 048°29'0 0.1
2017-Dec-03 02:57S 01°06' W 048°29'0 0.1
2017-Dec-03 02:30S 01°07' W 048°29'0 0.0
2017-Dec-03 01:54S 01°07' W 048°29'0 0.0
2017-Dec-03 01:27S 01°07' W 048°29'0 0.0
2017-Dec-03 01:00S 01°07' W 048°29'0 0.0
2017-Dec-03 00:27S 01°07' W 048°29'0 0.0
2017-Dec-02 23:57S 01°07' W 048°29'0 0.0
2017-Dec-02 23:21S 01°07' W 048°29'0 0.0
2017-Dec-02 22:57S 01°07' W 048°29'0 0.0
2017-Dec-02 22:27S 01°07' W 048°29'0 0.1
2017-Dec-02 21:57S 01°07' W 048°29'0 0.0
2017-Dec-02 21:27S 01°07' W 048°29'0 0.1
2017-Dec-02 20:57S 01°07' W 048°29'0 0.4
2017-Dec-02 20:30S 01°06' W 048°29'0 0.1
2017-Dec-02 19:57S 01°06' W 048°29'0 0.0
2017-Dec-02 19:30S 01°06' W 048°29'0 0.0
2017-Dec-02 19:00S 01°06' W 048°29'0 0.0
2017-Dec-02 18:30S 01°06' W 048°29'0 0.0
2017-Dec-02 18:00S 01°06' W 048°29'0 0.1
2017-Dec-02 17:30S 01°06' W 048°29'0 0.0
2017-Dec-02 17:00S 01°06' W 048°29'0 0.0
2017-Dec-02 16:30S 01°06' W 048°29'0 0.0
2017-Dec-02 15:57S 01°06' W 048°29'0 0.0
2017-Dec-02 15:30S 01°06' W 048°29'0 0.3
2017-Dec-02 14:48S 01°06' W 048°29'0 0.1
2017-Dec-02 14:21S 01°07' W 048°29'0 0.1
2017-Dec-02 14:00S 01°07' W 048°29'0 0.0
2017-Dec-02 13:18S 01°07' W 048°29'0 0.0
2017-Dec-02 09:33S 01°07' W 048°29'0 0.5
2017-Dec-02 09:27S 01°07' W 048°29'0 0.4
2017-Dec-02 09:00S 01°06' W 048°29'0 0.1
2017-Dec-02 08:27S 01°06' W 048°29'0 0.0
2017-Dec-02 08:00S 01°06' W 048°29'0 0.0
2017-Dec-02 07:24S 01°06' W 048°29'0 0.0
2017-Dec-02 07:00S 01°06' W 048°29'0 0.0
2017-Dec-02 06:30S 01°06' W 048°29'0 0.0
2017-Dec-02 05:51S 01°06' W 048°29'0 0.1
2017-Dec-02 05:30S 01°06' W 048°29'0 0.0
2017-Dec-02 05:00S 01°06' W 048°29'0 0.1
2017-Dec-02 04:27S 01°06' W 048°29'0 0.0
2017-Dec-02 04:00S 01°06' W 048°29'0 0.1
2017-Dec-02 03:30S 01°06' W 048°29'0 0.2
2017-Dec-02 02:57S 01°06' W 048°29'0 0.2
2017-Dec-02 02:24S 01°06' W 048°29'0 0.1
2017-Dec-02 02:00S 01°07' W 048°29'0 0.0
2017-Dec-02 01:27S 01°07' W 048°29'0 0.0
2017-Dec-01 21:42S 01°07' W 048°29'0 0.1
2017-Dec-01 21:24S 01°07' W 048°29'0 0.0
2017-Dec-01 20:30S 01°07' W 048°29'0 0.2
2017-Dec-01 20:00S 01°06' W 048°29'0 0.3
2017-Dec-01 19:30S 01°06' W 048°29'0 0.1
2017-Dec-01 18:57S 01°06' W 048°29'0 0.0
2017-Dec-01 18:27S 01°06' W 048°29'0 0.0
2017-Dec-01 18:00S 01°06' W 048°29'0 0.0
2017-Dec-01 17:30S 01°06' W 048°29'0 0.1
2017-Dec-01 17:00S 01°06' W 048°29'0 0.0
2017-Dec-01 16:30S 01°06' W 048°29'  
Track history (hours):
 
Tides and Currents Weather Stations Pressure Air Temp Water Temp Dewpoint Dewpoint Depression Visibility Wind Speed Wind Dir Waves Ship Positions

Oslo Venture

Last reported at 2017-Dec-11 16:10 UTC. Time now 2017-Dec-16 03:25 UTC.
Position S 00°03' W 047°40'.

Length 200 m; draft 12.5 m.

Type: Cargo ship. MMSI: 477476200.

Date/timePositionNaut miles runAvg speedWind from/ knotsBaromVisibWave heightAir tempDewpointWater temp
2017-Dec-11 16:10S 00°03' W 047°40'3 8.9
2017-Dec-11 15:52S 00°05' W 047°42'4 9.3
2017-Dec-11 15:29S 00°07' W 047°45'4 9.4
2017-Dec-11 15:00S 00°10' W 047°49'5 9.4
2017-Dec-11 14:30S 00°12' W 047°53'4 7.6
2017-Dec-11 14:00S 00°16' W 047°55'3 5.4
2017-Dec-11 13:30S 00°17' W 047°57'611.6
2017-Dec-11 13:00S 00°19' W 048°02'511.0
2017-Dec-11 12:30S 00°22' W 048°07'510.6
2017-Dec-11 12:00S 00°25' W 048°12'510.7
2017-Dec-11 11:30S 00°29' W 048°15'612.2
2017-Dec-11 11:00S 00°33' W 048°19'612.3
2017-Dec-11 10:30S 00°39' W 048°22'711.9
2017-Dec-11 09:56S 00°44' W 048°26'910.4
2017-Dec-11 09:05S 00°53' W 048°29'110.7
2017-Dec-11 09:00S 00°53' W 048°29'5 9.2
2017-Dec-11 08:30S 00°58' W 048°27'5 9.3
2017-Dec-11 08:00S 01°02' W 048°28'5 9.2
2017-Dec-11 07:30S 01°06' W 048°30'4 8.8
2017-Dec-11 07:00S 01°09' W 048°33'2 3.1
2017-Dec-11 06:30S 01°10' W 048°34'4 9.0
2017-Dec-11 06:00S 01°13' W 048°38'510.1
2017-Dec-11 05:30S 01°17' W 048°40'510.8
2017-Dec-11 05:00S 01°22' W 048°42'611.3
2017-Dec-11 04:30S 01°28' W 048°44'3 5.5
2017-Dec-11 04:00S 01°30' W 048°44'0 0.0
2017-Dec-11 03:29S 01°30' W 048°44'0 0.0
2017-Dec-11 02:59S 01°30' W 048°44'0 0.0
2017-Dec-11 02:29S 01°30' W 048°44'0 0.0
2017-Dec-11 01:56S 01°30' W 048°44'0 0.0
2017-Dec-11 01:29S 01°30' W 048°44'0 0.0
2017-Dec-11 00:59S 01°30' W 048°44'0 0.0
2017-Dec-11 00:29S 01°30' W 048°44'0 0.0
2017-Dec-10 23:59S 01°30' W 048°44'0 0.0
2017-Dec-10 23:29S 01°30' W 048°44'0 0.0
2017-Dec-10 22:59S 01°30' W 048°44'0 0.0
2017-Dec-10 22:29S 01°30' W 048°44'0 0.0
2017-Dec-10 21:59S 01°30' W 048°44'0 0.0
2017-Dec-10 21:29S 01°30' W 048°44'0 0.0
2017-Dec-10 20:59S 01°30' W 048°44'0 0.0
2017-Dec-10 20:29S 01°30' W 048°44'0 0.0
2017-Dec-10 19:59S 01°30' W 048°44'0 0.0
2017-Dec-10 19:29S 01°30' W 048°44'0 0.0
2017-Dec-10 18:59S 01°30' W 048°44'0 0.0
2017-Dec-10 18:29S 01°30' W 048°44'0 0.0
2017-Dec-10 17:59S 01°30' W 048°44'0 0.0
2017-Dec-10 17:29S 01°30' W 048°44'0 0.0
2017-Dec-10 16:59S 01°30' W 048°44'0 0.0
2017-Dec-10 16:29S 01°30' W 048°44'0 0.0
2017-Dec-10 15:59S 01°30' W 048°44'0 0.0
2017-Dec-10 15:29S 01°30' W 048°44'0 0.0
2017-Dec-10 14:59S 01°30' W 048°44'0 0.0
2017-Dec-10 14:20S 01°30' W 048°44'0 0.0
2017-Dec-10 13:59S 01°30' W 048°44'0 0.0
2017-Dec-10 13:29S 01°30' W 048°44'0 0.0
2017-Dec-10 12:59S 01°30' W 048°44'0 0.0
2017-Dec-10 12:29S 01°30' W 048°44'0 0.0
2017-Dec-10 11:59S 01°30' W 048°44'0 0.0
2017-Dec-10 11:29S 01°30' W 048°44'0 0.0
2017-Dec-10 10:59S 01°30' W 048°44'0 0.0
2017-Dec-10 10:29S 01°30' W 048°44'0 0.0
2017-Dec-10 09:59S 01°30' W 048°44'0 0.0
2017-Dec-10 09:29S 01°30' W 048°44'0 0.0
2017-Dec-10 08:53S 01°30' W 048°44'0 0.0
2017-Dec-10 08:29S 01°30' W 048°44'0 0.0
2017-Dec-10 07:56S 01°30' W 048°44'0 0.0
2017-Dec-10 07:29S 01°30' W 048°44'0 0.0
2017-Dec-10 06:59S 01°30' W 048°44'0 0.0
2017-Dec-10 06:29S 01°30' W 048°44'0 0.0
2017-Dec-10 05:53S 01°30' W 048°44'0 0.0
2017-Dec-10 05:17S 01°30' W 048°44'0 0.0
2017-Dec-10 04:56S 01°30' W 048°44'0 0.0
2017-Dec-10 04:29S 01°30' W 048°44'0 0.0
2017-Dec-10 03:59S 01°30' W 048°44'0 0.0
2017-Dec-10 03:29S 01°30' W 048°44'0 0.0
2017-Dec-10 02:59S 01°30' W 048°44'0 0.0
2017-Dec-10 02:29S 01°30' W 048°44'0 0.0
2017-Dec-10 01:59S 01°30' W 048°44'0 0.0
2017-Dec-10 01:29S 01°30' W 048°44'0 0.0
2017-Dec-10 00:59S 01°30' W 048°44'0 0.0
2017-Dec-10 00:29S 01°30' W 048°44'0 0.0
2017-Dec-09 23:59S 01°30' W 048°44'0 0.0
2017-Dec-09 23:29S 01°30' W 048°44'0 0.0
2017-Dec-09 22:59S 01°30' W 048°44'0 0.0
2017-Dec-09 22:29S 01°30' W 048°44'0 0.0
2017-Dec-09 21:59S 01°30' W 048°44'0 0.0
2017-Dec-08 18:17S 01°30' W 048°44'0 0.0
2017-Dec-08 17:59S 01°30' W 048°44'0 0.0
2017-Dec-08 17:29S 01°30' W 048°44'0 0.0
2017-Dec-08 16:50S 01°30' W 048°44'0 0.0
2017-Dec-08 16:29S 01°30' W 048°44'0 0.0
2017-Dec-08 15:59S 01°30' W 048°44'0 0.0
2017-Dec-08 15:29S 01°30' W 048°44'0 0.0
2017-Dec-08 14:59S 01°30' W 048°44'0 0.0
2017-Dec-08 14:29S 01°30' W 048°44'0 0.0
2017-Dec-08 13:50S 01°30' W 048°44'0 0.0
2017-Dec-08 13:29S 01°30' W 048°44'0 0.0
2017-Dec-08 12:59S 01°30' W 048°44'0 0.0
2017-Dec-08 12:29S 01°30' W 048°44'0 0.0
2017-Dec-08 11:59S 01°30' W 048°44'0 0.0
2017-Dec-08 11:29S 01°30' W 048°44'0 0.0
2017-Dec-08 10:59S 01°30' W 048°44'0 0.0
2017-Dec-08 10:29S 01°30' W 048°44'0 0.0
2017-Dec-08 09:56S 01°30' W 048°44'0 0.0
2017-Dec-08 09:29S 01°30' W 048°44'0 0.0
2017-Dec-08 08:56S 01°30' W 048°44'0 0.0
2017-Dec-08 08:29S 01°30' W 048°44'0 0.0
2017-Dec-08 07:59S 01°30' W 048°44'0 0.0
2017-Dec-08 07:29S 01°30' W 048°44'0 0.0
2017-Dec-08 06:59S 01°30' W 048°44'0 0.0
2017-Dec-08 06:29S 01°30' W 048°44'0 0.0
2017-Dec-08 05:59S 01°30' W 048°44'0 0.0
2017-Dec-08 05:29S 01°30' W 048°44'0 0.0
2017-Dec-08 04:59S 01°30' W 048°44'0 0.0
2017-Dec-08 04:29S 01°30' W 048°44'0 0.0
2017-Dec-08 03:59S 01°30' W 048°44'0 0.0
2017-Dec-08 03:30S 01°30' W 048°44'1 1.2
2017-Dec-08 02:58S 01°30' W 048°45'4 9.1
2017-Dec-08 02:30S 01°27' W 048°43'612.3
2017-Dec-08 02:01S 01°21' W 048°40'510.9
2017-Dec-08 01:31S 01°17' W 048°37'510.9
2017-Dec-08 01:01S 01°12' W 048°34'5 9.5
2017-Dec-08 00:31S 01°08' W 048°31'2 3.9
2017-Dec-08 00:01S 01°07' W 048°30'1 2.0
2017-Dec-07 23:31S 01°06' W 048°29'0 0.1
2017-Dec-07 23:00S 01°06' W 048°29'0 0.1
2017-Dec-07 22:30S 01°06' W 048°29'0 0.0
2017-Dec-07 21:54S 01°06' W 048°29'0 0.0
2017-Dec-07 21:27S 01°06' W 048°29'0 0.0
2017-Dec-07 20:57S 01°06' W 048°29'0 0.2
2017-Dec-07 20:27S 01°06' W 048°29'0 0.4
2017-Dec-07 19:57S 01°07' W 048°29'0 0.1
2017-Dec-07 19:21S 01°07' W 048°29'0 0.1
2017-Dec-07 18:57S 01°07' W 048°29'0 0.0
2017-Dec-07 18:27S 01°07' W 048°29'0 0.0
2017-Dec-07 17:57S 01°07' W 048°29'0 0.0
2017-Dec-07 17:27S 01°07' W 048°29'0 0.0
2017-Dec-07 17:00S 01°07' W 048°29'0 0.0
2017-Dec-07 16:27S 01°07' W 048°29'0 0.0
2017-Dec-07 15:57S 01°07' W 048°29'0 0.0
2017-Dec-07 15:09S 01°07' W 048°29'0 0.0
2017-Dec-07 14:57S 01°07' W 048°29'0 0.1
2017-Dec-07 14:27S 01°07' W 048°29'0 0.0
2017-Dec-07 13:51S 01°07' W 048°29'0 0.1
2017-Dec-07 13:30S 01°07' W 048°29'0 0.5
2017-Dec-07 13:00S 01°06' W 048°29'0 0.1
2017-Dec-07 12:30S 01°06' W 048°29'0 0.0
2017-Dec-07 12:00S 01°06' W 048°29'0 0.0
2017-Dec-07 11:30S 01°06' W 048°29'0 0.0
2017-Dec-07 11:00S 01°06' W 048°29'0 0.0
2017-Dec-07 10:27S 01°06' W 048°29'0 0.0
2017-Dec-07 10:00S 01°06' W 048°29'0 0.0
2017-Dec-07 09:30S 01°06' W 048°29'0 0.0
2017-Dec-07 09:00S 01°06' W 048°29'0 0.0
2017-Dec-07 08:30S 01°06' W 048°29'0 0.0
2017-Dec-07 08:00S 01°06' W 048°29'0 0.1
2017-Dec-07 07:30S 01°06' W 048°29'0 0.3
2017-Dec-07 07:00S 01°06' W 048°29'0 0.2
2017-Dec-07 06:30S 01°06' W 048°29'0 0.1
2017-Dec-07 05:57S 01°07' W 048°29'0 0.0
2017-Dec-07 05:27S 01°07' W 048°29'0 0.0
2017-Dec-07 04:57S 01°07' W 048°29'0 0.0
2017-Dec-07 04:15S 01°07' W 048°29'0 0.0
2017-Dec-07 03:57S 01°07' W 048°29'0 0.0
2017-Dec-07 03:27S 01°07' W 048°29'0 0.0
2017-Dec-07 02:57S 01°07' W 048°29'0 0.0
2017-Dec-07 02:21S 01°07' W 048°29'0 0.0
2017-Dec-07 01:59S 01°07' W 048°29'0 0.1
2017-Dec-07 01:27S 01°07' W 048°29'0 0.0
2017-Dec-07 00:57S 01°07' W 048°29'0 0.2
2017-Dec-07 00:30S 01°07' W 048°29'0 0.3
2017-Dec-07 00:00S 01°06' W 048°29'0 0.1
2017-Dec-06 23:30S 01°06' W 048°29'0 0.0
2017-Dec-06 22:57S 01°06' W 048°29'0 0.0
2017-Dec-06 22:27S 01°06' W 048°29'0 0.0
2017-Dec-06 22:00S 01°06' W 048°29'0 0.2
2017-Dec-06 21:30S 01°06' W 048°29'0 0.1
2017-Dec-06 20:57S 01°06' W 048°29'  
2017-Dec-04 10:21S 01°06' W 048°29'0 0.1
2017-Dec-04 10:00S 01°06' W 048°29'0 0.1
2017-Dec-04 09:30S 01°06' W 048°29'0 0.1
2017-Dec-04 08:57S 01°06' W 048°29'0 0.0
2017-Dec-04 08:30S 01°06' W 048°29'0 0.0
2017-Dec-04 08:00S 01°06' W 048°29'0 0.0
2017-Dec-04 07:30S 01°06' W 048°29'0 0.0
2017-Dec-04 07:00S 01°06' W 048°29'0 0.1
2017-Dec-04 06:30S 01°06' W 048°29'0 0.0
2017-Dec-04 05:54S 01°06' W 048°29'0 0.0
2017-Dec-04 05:30S 01°06' W 048°29'0 0.1
2017-Dec-04 04:57S 01°06' W 048°29'0 0.4
2017-Dec-04 04:27S 01°06' W 048°29'0 0.2
2017-Dec-04 03:57S 01°06' W 048°29'0 0.0
2017-Dec-04 03:27S 01°07' W 048°29'0 0.0
2017-Dec-04 02:57S 01°07' W 048°29'0 0.0
2017-Dec-04 02:24S 01°07' W 048°29'0 0.0
2017-Dec-04 01:57S 01°07' W 048°29'0 0.0
2017-Dec-04 01:27S 01°07' W 048°29'0 0.0
2017-Dec-04 00:57S 01°07' W 048°29'0 0.0
2017-Dec-04 00:27S 01°07' W 048°29'0 0.0
2017-Dec-03 23:57S 01°07' W 048°29'0 0.0
2017-Dec-03 23:15S 01°07' W 048°29'0 0.0
2017-Dec-03 22:57S 01°07' W 048°29'0 0.0
2017-Dec-03 22:27S 01°07' W 048°29'0 0.0
2017-Dec-03 21:57S 01°07' W 048°29'0 0.4
2017-Dec-03 21:30S 01°06' W 048°29'0 0.1
2017-Dec-03 21:00S 01°06' W 048°29'0 0.1
2017-Dec-03 20:30S 01°06' W 048°29'0 0.0
2017-Dec-03 20:00S 01°06' W 048°29'0 0.0
2017-Dec-03 19:30S 01°06' W 048°29'0 0.0
2017-Dec-03 19:00S 01°06' W 048°29'0 0.1
2017-Dec-03 18:24S 01°06' W 048°29'0 0.1
2017-Dec-03 17:57S 01°06' W 048°29'0 0.0
2017-Dec-03 17:30S 01°06' W 048°29'0 0.0
2017-Dec-03 17:00S 01°06' W 048°29'0 0.1
2017-Dec-03 16:30S 01°06' W 048°29'0 0.3
2017-Dec-03 15:57S 01°06' W 048°29'0 0.1
2017-Dec-03 15:30S 01°06' W 048°29'0 0.1
2017-Dec-03 15:00S 01°07' W 048°29'0 0.0
2017-Dec-03 14:21S 01°07' W 048°29'0 0.1
2017-Dec-03 14:00S 01°07' W 048°29'0 0.0
2017-Dec-03 13:30S 01°07' W 048°29'0 0.0
2017-Dec-03 12:57S 01°07' W 048°29'0 0.0
2017-Dec-03 12:27S 01°07' W 048°29'0 0.0
2017-Dec-03 11:57S 01°07' W 048°29'0 0.0
2017-Dec-03 11:27S 01°07' W 048°29'0 0.1
2017-Dec-03 10:57S 01°07' W 048°29'0 0.0
2017-Dec-03 10:27S 01°07' W 048°29'0 0.3
2017-Dec-03 10:00S 01°06' W 048°29'0 0.3
2017-Dec-03 09:30S 01°06' W 048°29'0 0.1
2017-Dec-03 08:57S 01°06' W 048°29'0 0.0
2017-Dec-03 08:27S 01°06' W 048°29'0 0.0
2017-Dec-03 08:00S 01°06' W 048°29'0 0.0
2017-Dec-03 07:30S 01°06' W 048°29'0 0.0
2017-Dec-03 06:57S 01°06' W 048°29'0 0.0
2017-Dec-03 06:27S 01°06' W 048°29'0 0.1
2017-Dec-03 06:00S 01°06' W 048°29'0 0.0
2017-Dec-03 05:30S 01°06' W 048°29'0 0.0
2017-Dec-03 05:00S 01°06' W 048°29'0 0.0
2017-Dec-03 04:24S 01°06' W 048°29'0 0.2
2017-Dec-03 04:00S 01°06' W 048°29'0 0.2
2017-Dec-03 03:27S 01°06' W 048°29'0 0.1
2017-Dec-03 02:57S 01°06' W 048°29'0 0.1
2017-Dec-03 02:30S 01°07' W 048°29'0 0.0
2017-Dec-03 01:54S 01°07' W 048°29'0 0.0
2017-Dec-03 01:27S 01°07' W 048°29'0 0.0
2017-Dec-03 01:00S 01°07' W 048°29'0 0.0
2017-Dec-03 00:27S 01°07' W 048°29'0 0.0
2017-Dec-02 23:57S 01°07' W 048°29'0 0.0
2017-Dec-02 23:21S 01°07' W 048°29'0 0.0
2017-Dec-02 22:57S 01°07' W 048°29'0 0.0
2017-Dec-02 22:27S 01°07' W 048°29'0 0.1
2017-Dec-02 21:57S 01°07' W 048°29'0 0.0
2017-Dec-02 21:27S 01°07' W 048°29'0 0.1
2017-Dec-02 20:57S 01°07' W 048°29'0 0.4
2017-Dec-02 20:30S 01°06' W 048°29'0 0.1
2017-Dec-02 19:57S 01°06' W 048°29'0 0.0
2017-Dec-02 19:30S 01°06' W 048°29'0 0.0
2017-Dec-02 19:00S 01°06' W 048°29'0 0.0
2017-Dec-02 18:30S 01°06' W 048°29'0 0.0
2017-Dec-02 18:00S 01°06' W 048°29'0 0.1
2017-Dec-02 17:30S 01°06' W 048°29'0 0.0
2017-Dec-02 17:00S 01°06' W 048°29'0 0.0
2017-Dec-02 16:30S 01°06' W 048°29'0 0.0
2017-Dec-02 15:57S 01°06' W 048°29'0 0.0
2017-Dec-02 15:30S 01°06' W 048°29'0 0.3
2017-Dec-02 14:48S 01°06' W 048°29'0 0.1
2017-Dec-02 14:21S 01°07' W 048°29'0 0.1
2017-Dec-02 14:00S 01°07' W 048°29'0 0.0
2017-Dec-02 13:18S 01°07' W 048°29'0 0.0
2017-Dec-02 09:33S 01°07' W 048°29'0 0.5
2017-Dec-02 09:27S 01°07' W 048°29'0 0.4
2017-Dec-02 09:00S 01°06' W 048°29'0 0.1
2017-Dec-02 08:27S 01°06' W 048°29'0 0.0
2017-Dec-02 08:00S 01°06' W 048°29'0 0.0
2017-Dec-02 07:24S 01°06' W 048°29'0 0.0
2017-Dec-02 07:00S 01°06' W 048°29'0 0.0
2017-Dec-02 06:30S 01°06' W 048°29'0 0.0
2017-Dec-02 05:51S 01°06' W 048°29'0 0.1
2017-Dec-02 05:30S 01°06' W 048°29'0 0.0
2017-Dec-02 05:00S 01°06' W 048°29'0 0.1
2017-Dec-02 04:27S 01°06' W 048°29'0 0.0
2017-Dec-02 04:00S 01°06' W 048°29'0 0.1
2017-Dec-02 03:30S 01°06' W 048°29'0 0.2
2017-Dec-02 02:57S 01°06' W 048°29'0 0.2
2017-Dec-02 02:24S 01°06' W 048°29'0 0.1
2017-Dec-02 02:00S 01°07' W 048°29'0 0.0
2017-Dec-02 01:27S 01°07' W 048°29'0 0.0
2017-Dec-01 21:42S 01°07' W 048°29'0 0.1
2017-Dec-01 21:24S 01°07' W 048°29'0 0.0
2017-Dec-01 20:30S 01°07' W 048°29'0 0.2
2017-Dec-01 20:00S 01°06' W 048°29'0 0.3
2017-Dec-01 19:30S 01°06' W 048°29'0 0.1
2017-Dec-01 18:57S 01°06' W 048°29'0 0.0
2017-Dec-01 18:27S 01°06' W 048°29'0 0.0
2017-Dec-01 18:00S 01°06' W 048°29'0 0.0
2017-Dec-01 17:30S 01°06' W 048°29'0 0.1
2017-Dec-01 17:00S 01°06' W 048°29'0 0.0
2017-Dec-01 16:30S 01°06' W 048°29'  

Dump ship's entire track history